sensor_id;sensor_type;location;lat;lon;timestamp;P1;durP1;ratioP1;P2;durP2;ratioP2
13171;SDS011;6651;53.200;10.432;2023-03-17T00:02:14;4.85;;;3.00;;
13171;SDS011;6651;53.200;10.432;2023-03-17T00:04:40;4.20;;;2.80;;
13171;SDS011;6651;53.200;10.432;2023-03-17T00:07:08;4.10;;;2.60;;
13171;SDS011;6651;53.200;10.432;2023-03-17T00:09:35;3.97;;;2.80;;
13171;SDS011;6651;53.200;10.432;2023-03-17T00:12:01;4.55;;;2.92;;
13171;SDS011;6651;53.200;10.432;2023-03-17T00:14:27;3.80;;;2.80;;
13171;SDS011;6651;53.200;10.432;2023-03-17T00:16:53;6.13;;;3.10;;
13171;SDS011;6651;53.200;10.432;2023-03-17T00:19:25;4.88;;;3.15;;
13171;SDS011;6651;53.200;10.432;2023-03-17T00:21:52;4.15;;;3.00;;
13171;SDS011;6651;53.200;10.432;2023-03-17T00:24:18;5.43;;;3.15;;
13171;SDS011;6651;53.200;10.432;2023-03-17T00:26:45;4.93;;;3.10;;
13171;SDS011;6651;53.200;10.432;2023-03-17T00:29:11;4.70;;;3.03;;
13171;SDS011;6651;53.200;10.432;2023-03-17T00:31:37;4.90;;;3.40;;
13171;SDS011;6651;53.200;10.432;2023-03-17T00:34:04;4.97;;;3.30;;
13171;SDS011;6651;53.200;10.432;2023-03-17T00:36:30;5.20;;;3.50;;
13171;SDS011;6651;53.200;10.432;2023-03-17T00:38:57;6.00;;;3.38;;
13171;SDS011;6651;53.200;10.432;2023-03-17T00:41:24;5.05;;;3.45;;
13171;SDS011;6651;53.200;10.432;2023-03-17T00:43:51;5.85;;;3.75;;
13171;SDS011;6651;53.200;10.432;2023-03-17T00:48:45;5.40;;;3.80;;
13171;SDS011;6651;53.200;10.432;2023-03-17T00:51:12;5.20;;;3.53;;
13171;SDS011;6651;53.200;10.432;2023-03-17T00:53:40;4.75;;;3.20;;
13171;SDS011;6651;53.200;10.432;2023-03-17T00:56:14;5.28;;;3.40;;
13171;SDS011;6651;53.200;10.432;2023-03-17T00:58:40;5.10;;;3.33;;
13171;SDS011;6651;53.200;10.432;2023-03-17T01:01:06;7.13;;;3.45;;
13171;SDS011;6651;53.200;10.432;2023-03-17T01:03:33;4.70;;;3.33;;
13171;SDS011;6651;53.200;10.432;2023-03-17T01:05:59;4.40;;;3.42;;
13171;SDS011;6651;53.200;10.432;2023-03-17T01:08:27;5.38;;;3.35;;
13171;SDS011;6651;53.200;10.432;2023-03-17T01:10:54;6.38;;;3.60;;
13171;SDS011;6651;53.200;10.432;2023-03-17T01:13:20;3.97;;;3.22;;
13171;SDS011;6651;53.200;10.432;2023-03-17T01:15:47;5.28;;;3.45;;
13171;SDS011;6651;53.200;10.432;2023-03-17T01:18:15;5.35;;;3.35;;
13171;SDS011;6651;53.200;10.432;2023-03-17T01:20:41;4.78;;;3.30;;
13171;SDS011;6651;53.200;10.432;2023-03-17T01:23:08;5.15;;;3.50;;
13171;SDS011;6651;53.200;10.432;2023-03-17T01:25:35;4.15;;;3.30;;
13171;SDS011;6651;53.200;10.432;2023-03-17T01:28:02;5.00;;;3.72;;
13171;SDS011;6651;53.200;10.432;2023-03-17T01:30:29;4.15;;;3.30;;
13171;SDS011;6651;53.200;10.432;2023-03-17T01:32:56;6.15;;;3.55;;
13171;SDS011;6651;53.200;10.432;2023-03-17T01:35:22;4.68;;;2.85;;
13171;SDS011;6651;53.200;10.432;2023-03-17T01:37:49;5.10;;;3.40;;
13171;SDS011;6651;53.200;10.432;2023-03-17T01:40:17;5.78;;;3.33;;
13171;SDS011;6651;53.200;10.432;2023-03-17T01:42:44;5.07;;;3.40;;
13171;SDS011;6651;53.200;10.432;2023-03-17T01:47:57;5.72;;;3.40;;
13171;SDS011;6651;53.200;10.432;2023-03-17T01:50:23;5.45;;;3.15;;
13171;SDS011;6651;53.200;10.432;2023-03-17T01:52:49;6.05;;;2.90;;
13171;SDS011;6651;53.200;10.432;2023-03-17T01:55:16;4.63;;;3.47;;
13171;SDS011;6651;53.200;10.432;2023-03-17T01:57:46;5.78;;;3.30;;
13171;SDS011;6651;53.200;10.432;2023-03-17T02:00:18;6.95;;;3.75;;
13171;SDS011;6651;53.200;10.432;2023-03-17T02:02:45;5.32;;;3.22;;
13171;SDS011;6651;53.200;10.432;2023-03-17T02:05:13;4.95;;;3.40;;
13171;SDS011;6651;53.200;10.432;2023-03-17T02:07:41;6.03;;;3.40;;
13171;SDS011;6651;53.200;10.432;2023-03-17T02:10:07;5.63;;;3.20;;
13171;SDS011;6651;53.200;10.432;2023-03-17T02:12:33;5.47;;;3.47;;
13171;SDS011;6651;53.200;10.432;2023-03-17T02:15:00;4.85;;;3.33;;
13171;SDS011;6651;53.200;10.432;2023-03-17T02:17:26;5.05;;;3.45;;
13171;SDS011;6651;53.200;10.432;2023-03-17T02:19:53;5.10;;;3.38;;
13171;SDS011;6651;53.200;10.432;2023-03-17T02:22:19;5.75;;;3.50;;
13171;SDS011;6651;53.200;10.432;2023-03-17T02:27:13;4.53;;;3.40;;
13171;SDS011;6651;53.200;10.432;2023-03-17T02:29:41;6.15;;;3.75;;
13171;SDS011;6651;53.200;10.432;2023-03-17T02:32:10;5.40;;;3.30;;
13171;SDS011;6651;53.200;10.432;2023-03-17T02:34:36;4.65;;;3.58;;
13171;SDS011;6651;53.200;10.432;2023-03-17T02:37:03;5.72;;;3.80;;
13171;SDS011;6651;53.200;10.432;2023-03-17T02:39:29;5.40;;;3.35;;
13171;SDS011;6651;53.200;10.432;2023-03-17T02:41:56;5.50;;;3.58;;
13171;SDS011;6651;53.200;10.432;2023-03-17T02:44:22;5.95;;;3.95;;
13171;SDS011;6651;53.200;10.432;2023-03-17T02:46:48;6.15;;;3.80;;
13171;SDS011;6651;53.200;10.432;2023-03-17T02:49:15;6.57;;;3.60;;
13171;SDS011;6651;53.200;10.432;2023-03-17T02:51:41;5.35;;;3.38;;
13171;SDS011;6651;53.200;10.432;2023-03-17T02:54:07;5.93;;;3.97;;
13171;SDS011;6651;53.200;10.432;2023-03-17T02:56:33;6.00;;;3.58;;
13171;SDS011;6651;53.200;10.432;2023-03-17T02:58:59;5.38;;;3.70;;
13171;SDS011;6651;53.200;10.432;2023-03-17T03:01:25;4.90;;;3.75;;
13171;SDS011;6651;53.200;10.432;2023-03-17T03:03:53;7.57;;;3.80;;
13171;SDS011;6651;53.200;10.432;2023-03-17T03:06:20;6.82;;;3.78;;
13171;SDS011;6651;53.200;10.432;2023-03-17T03:08:47;5.43;;;3.40;;
13171;SDS011;6651;53.200;10.432;2023-03-17T03:11:13;5.10;;;3.35;;
13171;SDS011;6651;53.200;10.432;2023-03-17T03:13:39;5.88;;;3.40;;
13171;SDS011;6651;53.200;10.432;2023-03-17T03:16:06;6.30;;;3.72;;
13171;SDS011;6651;53.200;10.432;2023-03-17T03:18:33;5.43;;;3.65;;
13171;SDS011;6651;53.200;10.432;2023-03-17T03:20:59;5.72;;;3.90;;
13171;SDS011;6651;53.200;10.432;2023-03-17T03:23:25;7.13;;;3.90;;
13171;SDS011;6651;53.200;10.432;2023-03-17T03:25:52;6.40;;;3.80;;
13171;SDS011;6651;53.200;10.432;2023-03-17T03:28:18;5.22;;;3.70;;
13171;SDS011;6651;53.200;10.432;2023-03-17T03:30:44;6.97;;;4.20;;
13171;SDS011;6651;53.200;10.432;2023-03-17T03:33:11;7.63;;;4.15;;
13171;SDS011;6651;53.200;10.432;2023-03-17T03:35:38;4.80;;;3.50;;
13171;SDS011;6651;53.200;10.432;2023-03-17T03:38:04;5.53;;;3.85;;
13171;SDS011;6651;53.200;10.432;2023-03-17T03:40:31;6.22;;;3.78;;
13171;SDS011;6651;53.200;10.432;2023-03-17T03:42:57;7.00;;;3.75;;
13171;SDS011;6651;53.200;10.432;2023-03-17T03:45:23;5.30;;;3.75;;
13171;SDS011;6651;53.200;10.432;2023-03-17T03:47:49;5.50;;;3.70;;
13171;SDS011;6651;53.200;10.432;2023-03-17T03:50:15;6.07;;;4.18;;
13171;SDS011;6651;53.200;10.432;2023-03-17T03:52:41;4.88;;;3.78;;
13171;SDS011;6651;53.200;10.432;2023-03-17T03:55:08;6.20;;;4.18;;
13171;SDS011;6651;53.200;10.432;2023-03-17T03:57:34;6.93;;;4.20;;
13171;SDS011;6651;53.200;10.432;2023-03-17T04:00:00;6.28;;;4.00;;
13171;SDS011;6651;53.200;10.432;2023-03-17T04:02:26;6.35;;;4.32;;
13171;SDS011;6651;53.200;10.432;2023-03-17T04:04:53;6.53;;;4.07;;
13171;SDS011;6651;53.200;10.432;2023-03-17T04:07:19;5.30;;;3.83;;
13171;SDS011;6651;53.200;10.432;2023-03-17T04:09:46;6.22;;;4.30;;
13171;SDS011;6651;53.200;10.432;2023-03-17T04:12:13;6.03;;;4.35;;
13171;SDS011;6651;53.200;10.432;2023-03-17T04:14:39;5.10;;;4.07;;
13171;SDS011;6651;53.200;10.432;2023-03-17T04:17:06;6.53;;;4.13;;
13171;SDS011;6651;53.200;10.432;2023-03-17T04:19:33;7.20;;;4.40;;
13171;SDS011;6651;53.200;10.432;2023-03-17T04:21:59;6.20;;;4.55;;
13171;SDS011;6651;53.200;10.432;2023-03-17T04:24:25;5.43;;;4.18;;
13171;SDS011;6651;53.200;10.432;2023-03-17T04:26:52;7.15;;;4.07;;
13171;SDS011;6651;53.200;10.432;2023-03-17T04:29:18;7.18;;;4.50;;
13171;SDS011;6651;53.200;10.432;2023-03-17T04:31:44;9.13;;;4.18;;
13171;SDS011;6651;53.200;10.432;2023-03-17T04:34:15;7.65;;;4.68;;
13171;SDS011;6651;53.200;10.432;2023-03-17T04:36:43;8.57;;;4.38;;
13171;SDS011;6651;53.200;10.432;2023-03-17T04:39:09;6.57;;;4.20;;
13171;SDS011;6651;53.200;10.432;2023-03-17T04:41:35;6.03;;;4.40;;
13171;SDS011;6651;53.200;10.432;2023-03-17T04:44:01;6.18;;;4.35;;
13171;SDS011;6651;53.200;10.432;2023-03-17T04:46:27;7.10;;;4.43;;
13171;SDS011;6651;53.200;10.432;2023-03-17T04:48:53;6.13;;;4.20;;
13171;SDS011;6651;53.200;10.432;2023-03-17T04:51:19;7.20;;;4.75;;
13171;SDS011;6651;53.200;10.432;2023-03-17T04:53:45;6.18;;;4.40;;
13171;SDS011;6651;53.200;10.432;2023-03-17T04:56:13;6.82;;;4.50;;
13171;SDS011;6651;53.200;10.432;2023-03-17T04:58:39;5.75;;;4.40;;
13171;SDS011;6651;53.200;10.432;2023-03-17T05:01:05;7.03;;;4.30;;
13171;SDS011;6651;53.200;10.432;2023-03-17T05:03:32;6.50;;;4.18;;
13171;SDS011;6651;53.200;10.432;2023-03-17T05:05:59;7.22;;;4.63;;
13171;SDS011;6651;53.200;10.432;2023-03-17T05:08:25;6.68;;;5.03;;
13171;SDS011;6651;53.200;10.432;2023-03-17T05:10:52;7.45;;;4.63;;
13171;SDS011;6651;53.200;10.432;2023-03-17T05:13:18;6.78;;;4.78;;
13171;SDS011;6651;53.200;10.432;2023-03-17T05:15:48;6.22;;;4.25;;
13171;SDS011;6651;53.200;10.432;2023-03-17T05:18:15;8.07;;;4.60;;
13171;SDS011;6651;53.200;10.432;2023-03-17T05:20:42;7.85;;;4.95;;
13171;SDS011;6651;53.200;10.432;2023-03-17T05:23:08;5.95;;;4.47;;
13171;SDS011;6651;53.200;10.432;2023-03-17T05:25:34;6.80;;;4.30;;
13171;SDS011;6651;53.200;10.432;2023-03-17T05:28:01;5.78;;;4.65;;
13171;SDS011;6651;53.200;10.432;2023-03-17T05:30:27;6.53;;;4.50;;
13171;SDS011;6651;53.200;10.432;2023-03-17T05:32:53;6.90;;;5.18;;
13171;SDS011;6651;53.200;10.432;2023-03-17T05:35:19;6.05;;;4.50;;
13171;SDS011;6651;53.200;10.432;2023-03-17T05:37:46;7.88;;;4.93;;
13171;SDS011;6651;53.200;10.432;2023-03-17T05:40:12;6.32;;;4.75;;
13171;SDS011;6651;53.200;10.432;2023-03-17T05:42:39;7.78;;;5.05;;
13171;SDS011;6651;53.200;10.432;2023-03-17T05:45:06;7.32;;;4.80;;
13171;SDS011;6651;53.200;10.432;2023-03-17T05:47:33;7.25;;;4.90;;
13171;SDS011;6651;53.200;10.432;2023-03-17T05:49:59;8.20;;;4.82;;
13171;SDS011;6651;53.200;10.432;2023-03-17T05:52:25;6.57;;;5.00;;
13171;SDS011;6651;53.200;10.432;2023-03-17T05:54:52;6.70;;;4.68;;
13171;SDS011;6651;53.200;10.432;2023-03-17T05:57:19;6.43;;;5.10;;
13171;SDS011;6651;53.200;10.432;2023-03-17T05:59:45;7.65;;;4.90;;
13171;SDS011;6651;53.200;10.432;2023-03-17T06:02:11;7.32;;;4.60;;
13171;SDS011;6651;53.200;10.432;2023-03-17T06:04:37;7.57;;;5.05;;
13171;SDS011;6651;53.200;10.432;2023-03-17T06:07:03;7.80;;;4.75;;
13171;SDS011;6651;53.200;10.432;2023-03-17T06:09:30;7.22;;;4.93;;
13171;SDS011;6651;53.200;10.432;2023-03-17T06:11:57;6.45;;;4.78;;
13171;SDS011;6651;53.200;10.432;2023-03-17T06:14:23;6.30;;;4.80;;
13171;SDS011;6651;53.200;10.432;2023-03-17T06:16:49;5.93;;;4.82;;
13171;SDS011;6651;53.200;10.432;2023-03-17T06:19:15;8.93;;;5.10;;
13171;SDS011;6651;53.200;10.432;2023-03-17T06:21:41;7.30;;;4.72;;
13171;SDS011;6651;53.200;10.432;2023-03-17T06:24:08;7.50;;;4.80;;
13171;SDS011;6651;53.200;10.432;2023-03-17T06:26:34;8.48;;;5.00;;
13171;SDS011;6651;53.200;10.432;2023-03-17T06:29:01;6.78;;;4.82;;
13171;SDS011;6651;53.200;10.432;2023-03-17T06:31:27;6.68;;;4.68;;
13171;SDS011;6651;53.200;10.432;2023-03-17T06:33:54;7.35;;;4.60;;
13171;SDS011;6651;53.200;10.432;2023-03-17T06:36:21;7.10;;;4.85;;
13171;SDS011;6651;53.200;10.432;2023-03-17T06:38:47;5.30;;;4.40;;
13171;SDS011;6651;53.200;10.432;2023-03-17T06:41:13;7.35;;;4.85;;
13171;SDS011;6651;53.200;10.432;2023-03-17T06:43:40;6.18;;;4.57;;
13171;SDS011;6651;53.200;10.432;2023-03-17T06:46:06;5.55;;;4.35;;
13171;SDS011;6651;53.200;10.432;2023-03-17T06:48:32;6.65;;;4.63;;
13171;SDS011;6651;53.200;10.432;2023-03-17T06:50:58;8.98;;;4.85;;
13171;SDS011;6651;53.200;10.432;2023-03-17T06:53:24;7.22;;;5.43;;
13171;SDS011;6651;53.200;10.432;2023-03-17T06:55:51;7.30;;;4.70;;
13171;SDS011;6651;53.200;10.432;2023-03-17T06:58:17;7.50;;;4.60;;
13171;SDS011;6651;53.200;10.432;2023-03-17T07:00:44;6.72;;;4.80;;
13171;SDS011;6651;53.200;10.432;2023-03-17T07:03:12;6.40;;;4.50;;
13171;SDS011;6651;53.200;10.432;2023-03-17T07:05:39;7.75;;;4.97;;
13171;SDS011;6651;53.200;10.432;2023-03-17T07:08:05;6.97;;;4.78;;
13171;SDS011;6651;53.200;10.432;2023-03-17T07:10:32;7.53;;;4.40;;
13171;SDS011;6651;53.200;10.432;2023-03-17T07:12:58;5.95;;;4.75;;
13171;SDS011;6651;53.200;10.432;2023-03-17T07:15:24;6.43;;;4.47;;
13171;SDS011;6651;53.200;10.432;2023-03-17T07:17:50;6.72;;;4.65;;
13171;SDS011;6651;53.200;10.432;2023-03-17T07:20:16;6.07;;;4.55;;
13171;SDS011;6651;53.200;10.432;2023-03-17T07:22:42;6.10;;;4.20;;
13171;SDS011;6651;53.200;10.432;2023-03-17T07:25:08;7.13;;;4.55;;
13171;SDS011;6651;53.200;10.432;2023-03-17T07:27:35;7.40;;;4.72;;
13171;SDS011;6651;53.200;10.432;2023-03-17T07:30:02;6.75;;;4.57;;
13171;SDS011;6651;53.200;10.432;2023-03-17T07:32:29;5.90;;;4.15;;
13171;SDS011;6651;53.200;10.432;2023-03-17T07:34:55;7.80;;;4.82;;
13171;SDS011;6651;53.200;10.432;2023-03-17T07:37:22;5.85;;;4.43;;
13171;SDS011;6651;53.200;10.432;2023-03-17T07:39:49;5.40;;;4.45;;
13171;SDS011;6651;53.200;10.432;2023-03-17T07:42:15;6.57;;;4.13;;
13171;SDS011;6651;53.200;10.432;2023-03-17T07:44:42;6.10;;;4.40;;
13171;SDS011;6651;53.200;10.432;2023-03-17T07:47:09;8.68;;;4.78;;
13171;SDS011;6651;53.200;10.432;2023-03-17T07:49:36;7.50;;;4.47;;
13171;SDS011;6651;53.200;10.432;2023-03-17T07:52:02;5.82;;;4.35;;
13171;SDS011;6651;53.200;10.432;2023-03-17T07:54:28;6.65;;;4.15;;
13171;SDS011;6651;53.200;10.432;2023-03-17T07:56:54;6.32;;;4.75;;
13171;SDS011;6651;53.200;10.432;2023-03-17T07:59:20;7.55;;;4.72;;
13171;SDS011;6651;53.200;10.432;2023-03-17T08:01:47;7.22;;;5.10;;
13171;SDS011;6651;53.200;10.432;2023-03-17T08:04:13;7.90;;;5.03;;
13171;SDS011;6651;53.200;10.432;2023-03-17T08:06:40;6.80;;;4.82;;
13171;SDS011;6651;53.200;10.432;2023-03-17T08:09:06;5.93;;;4.40;;
13171;SDS011;6651;53.200;10.432;2023-03-17T08:11:33;5.90;;;4.43;;
13171;SDS011;6651;53.200;10.432;2023-03-17T08:13:59;5.70;;;4.43;;
13171;SDS011;6651;53.200;10.432;2023-03-17T08:16:26;6.60;;;4.32;;
13171;SDS011;6651;53.200;10.432;2023-03-17T08:18:53;8.10;;;4.55;;
13171;SDS011;6651;53.200;10.432;2023-03-17T08:21:19;7.07;;;4.32;;
13171;SDS011;6651;53.200;10.432;2023-03-17T08:23:45;7.38;;;4.40;;
13171;SDS011;6651;53.200;10.432;2023-03-17T08:26:12;8.05;;;4.43;;
13171;SDS011;6651;53.200;10.432;2023-03-17T08:28:38;6.93;;;4.40;;
13171;SDS011;6651;53.200;10.432;2023-03-17T08:31:12;5.03;;;3.85;;
13171;SDS011;6651;53.200;10.432;2023-03-17T08:33:40;6.88;;;4.60;;
13171;SDS011;6651;53.200;10.432;2023-03-17T08:36:06;6.50;;;4.60;;
13171;SDS011;6651;53.200;10.432;2023-03-17T08:38:34;7.57;;;4.40;;
13171;SDS011;6651;53.200;10.432;2023-03-17T08:41:01;5.85;;;4.00;;
13171;SDS011;6651;53.200;10.432;2023-03-17T08:43:28;11.27;;;4.53;;
13171;SDS011;6651;53.200;10.432;2023-03-17T08:46:05;5.53;;;4.10;;
13171;SDS011;6651;53.200;10.432;2023-03-17T08:48:32;7.30;;;4.00;;
13171;SDS011;6651;53.200;10.432;2023-03-17T08:50:58;5.72;;;4.05;;
13171;SDS011;6651;53.200;10.432;2023-03-17T08:53:24;6.45;;;4.30;;
13171;SDS011;6651;53.200;10.432;2023-03-17T08:55:52;6.30;;;4.63;;
13171;SDS011;6651;53.200;10.432;2023-03-17T08:58:19;5.90;;;4.32;;
13171;SDS011;6651;53.200;10.432;2023-03-17T09:00:45;5.78;;;4.43;;
13171;SDS011;6651;53.200;10.432;2023-03-17T09:03:11;5.90;;;4.30;;
13171;SDS011;6651;53.200;10.432;2023-03-17T09:05:37;5.65;;;4.50;;
13171;SDS011;6651;53.200;10.432;2023-03-17T09:08:03;5.53;;;4.20;;
13171;SDS011;6651;53.200;10.432;2023-03-17T09:10:30;5.45;;;4.53;;
13171;SDS011;6651;53.200;10.432;2023-03-17T09:12:56;7.25;;;4.40;;
13171;SDS011;6651;53.200;10.432;2023-03-17T09:15:27;4.85;;;3.75;;
13171;SDS011;6651;53.200;10.432;2023-03-17T09:17:53;8.60;;;4.30;;
13171;SDS011;6651;53.200;10.432;2023-03-17T09:20:19;5.63;;;4.20;;
13171;SDS011;6651;53.200;10.432;2023-03-17T09:22:46;5.55;;;3.97;;
13171;SDS011;6651;53.200;10.432;2023-03-17T09:25:13;6.15;;;4.43;;
13171;SDS011;6651;53.200;10.432;2023-03-17T09:27:39;5.05;;;4.10;;
13171;SDS011;6651;53.200;10.432;2023-03-17T09:30:05;10.77;;;4.68;;
13171;SDS011;6651;53.200;10.432;2023-03-17T09:32:34;6.72;;;4.47;;
13171;SDS011;6651;53.200;10.432;2023-03-17T09:35:01;9.48;;;4.10;;
13171;SDS011;6651;53.200;10.432;2023-03-17T09:37:28;8.32;;;4.10;;
13171;SDS011;6651;53.200;10.432;2023-03-17T09:39:54;9.23;;;4.65;;
13171;SDS011;6651;53.200;10.432;2023-03-17T09:45:08;7.72;;;4.18;;
13171;SDS011;6651;53.200;10.432;2023-03-17T09:50:10;6.43;;;4.00;;
13171;SDS011;6651;53.200;10.432;2023-03-17T09:52:38;5.63;;;3.85;;
13171;SDS011;6651;53.200;10.432;2023-03-17T09:55:05;5.25;;;3.85;;
13171;SDS011;6651;53.200;10.432;2023-03-17T09:57:34;5.63;;;3.70;;
13171;SDS011;6651;53.200;10.432;2023-03-17T10:02:31;4.93;;;3.60;;
13171;SDS011;6651;53.200;10.432;2023-03-17T10:04:58;5.35;;;3.83;;
13171;SDS011;6651;53.200;10.432;2023-03-17T10:08:08;5.30;;;3.53;;
13171;SDS011;6651;53.200;10.432;2023-03-17T10:15:36;5.50;;;3.55;;
13171;SDS011;6651;53.200;10.432;2023-03-17T10:18:12;5.90;;;3.60;;
13171;SDS011;6651;53.200;10.432;2023-03-17T10:20:42;7.00;;;3.28;;
13171;SDS011;6651;53.200;10.432;2023-03-17T10:23:12;4.93;;;3.53;;
13171;SDS011;6651;53.200;10.432;2023-03-17T10:25:39;5.65;;;3.53;;
13171;SDS011;6651;53.200;10.432;2023-03-17T10:30:33;5.95;;;3.25;;
13171;SDS011;6651;53.200;10.432;2023-03-17T10:33:00;8.18;;;3.65;;
13171;SDS011;6651;53.200;10.432;2023-03-17T10:35:27;6.97;;;3.53;;
13171;SDS011;6651;53.200;10.432;2023-03-17T10:37:53;7.97;;;3.45;;
13171;SDS011;6651;53.200;10.432;2023-03-17T10:40:20;5.18;;;3.35;;
13171;SDS011;6651;53.200;10.432;2023-03-17T10:42:48;3.20;;;2.88;;
13171;SDS011;6651;53.200;10.432;2023-03-17T10:45:27;5.15;;;3.25;;
13171;SDS011;6651;53.200;10.432;2023-03-17T10:47:54;5.10;;;3.17;;
13171;SDS011;6651;53.200;10.432;2023-03-17T10:52:55;4.07;;;2.90;;
13171;SDS011;6651;53.200;10.432;2023-03-17T10:55:24;4.20;;;3.35;;
13171;SDS011;6651;53.200;10.432;2023-03-17T10:57:53;4.65;;;3.15;;
13171;SDS011;6651;53.200;10.432;2023-03-17T11:00:22;4.43;;;3.00;;
13171;SDS011;6651;53.200;10.432;2023-03-17T11:02:58;5.30;;;2.80;;
13171;SDS011;6651;53.200;10.432;2023-03-17T11:05:25;5.88;;;3.33;;
13171;SDS011;6651;53.200;10.432;2023-03-17T11:07:57;3.92;;;2.90;;
13171;SDS011;6651;53.200;10.432;2023-03-17T11:10:24;5.05;;;3.35;;
13171;SDS011;6651;53.200;10.432;2023-03-17T11:12:57;5.30;;;3.30;;
13171;SDS011;6651;53.200;10.432;2023-03-17T11:15:28;5.97;;;3.40;;
13171;SDS011;6651;53.200;10.432;2023-03-17T11:18:03;5.55;;;3.30;;
13171;SDS011;6651;53.200;10.432;2023-03-17T11:25:48;3.75;;;2.60;;
13171;SDS011;6651;53.200;10.432;2023-03-17T11:28:18;4.15;;;2.80;;
13171;SDS011;6651;53.200;10.432;2023-03-17T11:30:57;4.00;;;2.60;;
13171;SDS011;6651;53.200;10.432;2023-03-17T11:38:28;5.03;;;3.10;;
13171;SDS011;6651;53.200;10.432;2023-03-17T11:41:20;4.03;;;2.95;;
13171;SDS011;6651;53.200;10.432;2023-03-17T11:43:57;4.30;;;3.08;;
13171;SDS011;6651;53.200;10.432;2023-03-17T11:46:28;3.78;;;2.78;;
13171;SDS011;6651;53.200;10.432;2023-03-17T11:48:58;5.82;;;2.97;;
13171;SDS011;6651;53.200;10.432;2023-03-17T11:51:27;3.72;;;2.67;;
13171;SDS011;6651;53.200;10.432;2023-03-17T11:53:58;4.57;;;2.75;;
13171;SDS011;6651;53.200;10.432;2023-03-17T11:59:04;9.02;;;2.97;;
13171;SDS011;6651;53.200;10.432;2023-03-17T12:01:38;3.33;;;2.70;;
13171;SDS011;6651;53.200;10.432;2023-03-17T12:04:09;4.20;;;2.50;;
13171;SDS011;6651;53.200;10.432;2023-03-17T12:06:42;4.07;;;2.50;;
13171;SDS011;6651;53.200;10.432;2023-03-17T12:11:40;4.45;;;2.65;;
13171;SDS011;6651;53.200;10.432;2023-03-17T12:16:47;5.43;;;2.47;;
13171;SDS011;6651;53.200;10.432;2023-03-17T12:19:16;3.55;;;2.58;;
13171;SDS011;6651;53.200;10.432;2023-03-17T12:21:45;3.85;;;2.70;;
13171;SDS011;6651;53.200;10.432;2023-03-17T12:24:16;2.60;;;2.40;;
13171;SDS011;6651;53.200;10.432;2023-03-17T12:26:47;2.40;;;2.08;;
13171;SDS011;6651;53.200;10.432;2023-03-17T12:32:45;2.42;;;2.17;;
13171;SDS011;6651;53.200;10.432;2023-03-17T12:34:53;2.97;;;2.30;;
13171;SDS011;6651;53.200;10.432;2023-03-17T12:37:20;3.90;;;2.40;;
13171;SDS011;6651;53.200;10.432;2023-03-17T12:39:53;3.67;;;2.50;;
13171;SDS011;6651;53.200;10.432;2023-03-17T12:54:54;3.47;;;2.20;;
13171;SDS011;6651;53.200;10.432;2023-03-17T12:57:37;4.38;;;2.30;;
13171;SDS011;6651;53.200;10.432;2023-03-17T13:00:27;2.20;;;1.98;;
13171;SDS011;6651;53.200;10.432;2023-03-17T13:03:10;4.63;;;2.50;;
13171;SDS011;6651;53.200;10.432;2023-03-17T13:05:37;3.60;;;2.75;;
13171;SDS011;6651;53.200;10.432;2023-03-17T13:08:03;4.18;;;2.50;;
13171;SDS011;6651;53.200;10.432;2023-03-17T13:13:06;6.07;;;2.60;;
13171;SDS011;6651;53.200;10.432;2023-03-17T13:20:42;3.78;;;2.50;;
13171;SDS011;6651;53.200;10.432;2023-03-17T13:35:41;4.00;;;2.35;;
13171;SDS011;6651;53.200;10.432;2023-03-17T13:40:44;4.43;;;2.20;;
13171;SDS011;6651;53.200;10.432;2023-03-17T13:45:51;3.47;;;2.25;;
13171;SDS011;6651;53.200;10.432;2023-03-17T13:50:46;3.30;;;2.58;;
13171;SDS011;6651;53.200;10.432;2023-03-17T13:53:12;3.55;;;2.65;;
13171;SDS011;6651;53.200;10.432;2023-03-17T13:55:40;4.72;;;2.28;;
13171;SDS011;6651;53.200;10.432;2023-03-17T14:00:33;6.68;;;3.08;;
13171;SDS011;6651;53.200;10.432;2023-03-17T14:03:45;3.70;;;2.30;;
13171;SDS011;6651;53.200;10.432;2023-03-17T14:05:46;3.70;;;2.17;;
13171;SDS011;6651;53.200;10.432;2023-03-17T14:08:30;2.97;;;2.30;;
13171;SDS011;6651;53.200;10.432;2023-03-17T14:10:58;2.72;;;2.20;;
13171;SDS011;6651;53.200;10.432;2023-03-17T14:13:34;3.13;;;2.38;;
13171;SDS011;6651;53.200;10.432;2023-03-17T14:16:04;3.42;;;2.30;;
13171;SDS011;6651;53.200;10.432;2023-03-17T14:18:33;2.67;;;2.20;;
13171;SDS011;6651;53.200;10.432;2023-03-17T14:21:00;3.45;;;2.40;;
13171;SDS011;6651;53.200;10.432;2023-03-17T14:23:27;3.92;;;2.42;;
13171;SDS011;6651;53.200;10.432;2023-03-17T14:25:54;5.82;;;2.65;;
13171;SDS011;6651;53.200;10.432;2023-03-17T14:28:24;3.10;;;2.53;;
13171;SDS011;6651;53.200;10.432;2023-03-17T14:30:52;3.50;;;2.45;;
13171;SDS011;6651;53.200;10.432;2023-03-17T14:33:22;2.83;;;2.42;;
13171;SDS011;6651;53.200;10.432;2023-03-17T14:35:49;4.05;;;2.50;;
13171;SDS011;6651;53.200;10.432;2023-03-17T14:38:23;4.85;;;2.72;;
13171;SDS011;6651;53.200;10.432;2023-03-17T14:40:50;2.83;;;2.25;;
13171;SDS011;6651;53.200;10.432;2023-03-17T14:43:24;3.75;;;2.53;;
13171;SDS011;6651;53.200;10.432;2023-03-17T14:45:51;2.30;;;2.10;;
13171;SDS011;6651;53.200;10.432;2023-03-17T14:48:30;2.83;;;2.30;;
13171;SDS011;6651;53.200;10.432;2023-03-17T14:51:01;3.72;;;2.20;;
13171;SDS011;6651;53.200;10.432;2023-03-17T14:53:32;3.17;;;2.17;;
13171;SDS011;6651;53.200;10.432;2023-03-17T14:55:59;2.63;;;2.20;;
13171;SDS011;6651;53.200;10.432;2023-03-17T14:58:29;3.00;;;2.33;;
13171;SDS011;6651;53.200;10.432;2023-03-17T15:01:00;3.38;;;2.13;;
13171;SDS011;6651;53.200;10.432;2023-03-17T15:03:27;4.90;;;2.33;;
13171;SDS011;6651;53.200;10.432;2023-03-17T15:06:02;3.28;;;2.03;;
13171;SDS011;6651;53.200;10.432;2023-03-17T15:08:42;3.70;;;2.08;;
13171;SDS011;6651;53.200;10.432;2023-03-17T15:11:16;2.05;;;1.80;;
13171;SDS011;6651;53.200;10.432;2023-03-17T15:13:43;3.10;;;2.10;;
13171;SDS011;6651;53.200;10.432;2023-03-17T15:16:17;2.40;;;2.20;;
13171;SDS011;6651;53.200;10.432;2023-03-17T15:18:44;2.65;;;2.00;;
13171;SDS011;6651;53.200;10.432;2023-03-17T15:21:21;3.53;;;2.33;;
13171;SDS011;6651;53.200;10.432;2023-03-17T15:23:47;2.22;;;2.03;;
13171;SDS011;6651;53.200;10.432;2023-03-17T15:26:20;2.50;;;1.95;;
13171;SDS011;6651;53.200;10.432;2023-03-17T15:28:46;3.10;;;2.15;;
13171;SDS011;6651;53.200;10.432;2023-03-17T15:31:12;3.55;;;2.13;;
13171;SDS011;6651;53.200;10.432;2023-03-17T15:33:40;4.90;;;2.47;;
13171;SDS011;6651;53.200;10.432;2023-03-17T15:36:06;4.15;;;2.20;;
13171;SDS011;6651;53.200;10.432;2023-03-17T15:38:34;3.70;;;2.20;;
13171;SDS011;6651;53.200;10.432;2023-03-17T15:41:02;2.70;;;2.08;;
13171;SDS011;6651;53.200;10.432;2023-03-17T15:43:28;3.03;;;2.13;;
13171;SDS011;6651;53.200;10.432;2023-03-17T15:46:02;4.22;;;2.30;;
13171;SDS011;6651;53.200;10.432;2023-03-17T15:48:30;2.00;;;1.90;;
13171;SDS011;6651;53.200;10.432;2023-03-17T15:50:57;2.60;;;2.00;;
13171;SDS011;6651;53.200;10.432;2023-03-17T15:53:24;2.50;;;2.30;;
13171;SDS011;6651;53.200;10.432;2023-03-17T15:55:50;3.45;;;2.30;;
13171;SDS011;6651;53.200;10.432;2023-03-17T15:58:17;3.38;;;2.00;;
13171;SDS011;6651;53.200;10.432;2023-03-17T16:00:44;2.83;;;2.10;;
13171;SDS011;6651;53.200;10.432;2023-03-17T16:03:22;4.22;;;2.30;;
13171;SDS011;6651;53.200;10.432;2023-03-17T16:05:49;3.13;;;1.88;;
13171;SDS011;6651;53.200;10.432;2023-03-17T16:08:15;3.03;;;2.00;;
13171;SDS011;6651;53.200;10.432;2023-03-17T16:10:42;3.10;;;1.80;;
13171;SDS011;6651;53.200;10.432;2023-03-17T16:13:08;1.92;;;1.73;;
13171;SDS011;6651;53.200;10.432;2023-03-17T16:15:36;2.83;;;1.90;;
13171;SDS011;6651;53.200;10.432;2023-03-17T16:18:03;3.75;;;2.00;;
13171;SDS011;6651;53.200;10.432;2023-03-17T16:20:32;2.55;;;2.17;;
13171;SDS011;6651;53.200;10.432;2023-03-17T16:23:08;2.88;;;1.80;;